createdAt,value
2022-10-31T00:00:04.855Z,100788.44
2022-10-31T00:02:58.380Z,100814.47
2022-10-31T00:05:30.431Z,100822.75
2022-10-31T00:08:01.092Z,100823.31
2022-10-31T00:10:34.621Z,100815.94
2022-10-31T00:13:06.087Z,100822.72
2022-10-31T00:15:37.873Z,100787.41
2022-10-31T00:18:26.216Z,100812.63
2022-10-31T00:21:09.736Z,100804.41
2022-10-31T00:23:40.236Z,100778.91
2022-10-31T00:26:13.130Z,100809.97
2022-10-31T00:28:44.108Z,100813.97
2022-10-31T00:31:15.686Z,100819.25
2022-10-31T00:33:45.784Z,100814.50
2022-10-31T00:36:18.451Z,100822.78
2022-10-31T00:38:54.464Z,100829.06
2022-10-31T00:41:33.406Z,100827.66
2022-10-31T00:44:03.110Z,100806.50
2022-10-31T00:46:42.016Z,100828.88
2022-10-31T00:49:12.816Z,100794.59
2022-10-31T00:51:50.028Z,100831.38
2022-10-31T00:54:22.897Z,100827.56
2022-10-31T00:57:04.234Z,100824.13
2022-10-31T00:59:36.784Z,100815.81
2022-10-31T01:02:04.084Z,100821.25
2022-10-31T01:04:51.352Z,100793.41
2022-10-31T01:07:32.191Z,100830.50
2022-10-31T01:10:00.084Z,100829.38
2022-10-31T01:12:30.641Z,100835.09
2022-10-31T01:15:00.300Z,100830.78
2022-10-31T01:17:32.469Z,100832.13
2022-10-31T01:20:02.649Z,100827.09
2022-10-31T01:22:50.027Z,100835.56
2022-10-31T01:25:17.080Z,100821.13
2022-10-31T01:28:04.964Z,100834.72
2022-10-31T01:30:38.463Z,100829.75
2022-10-31T01:33:10.972Z,100800.06
2022-10-31T01:35:46.490Z,100824.53
2022-10-31T01:38:18.819Z,100830.63
2022-10-31T01:40:53.440Z,100831.41
2022-10-31T01:43:44.930Z,100826.78
2022-10-31T01:46:15.947Z,100819.09
2022-10-31T01:48:48.629Z,100823.09
2022-10-31T01:51:23.719Z,100824.00
2022-10-31T01:54:05.841Z,100826.34
2022-10-31T01:56:51.591Z,100816.63
2022-10-31T01:59:31.145Z,100819.09
2022-10-31T02:02:04.213Z,100826.84
2022-10-31T02:04:57.660Z,100825.13
2022-10-31T02:07:41.010Z,100824.50
2022-10-31T02:10:14.087Z,100820.78
2022-10-31T02:12:48.983Z,100820.44
2022-10-31T02:15:24.568Z,100793.41
2022-10-31T02:17:54.549Z,100812.16
2022-10-31T02:21:01.556Z,100816.19
2022-10-31T02:23:55.995Z,100809.88
2022-10-31T02:27:00.441Z,100807.66
2022-10-31T02:29:49.775Z,100798.91
2022-10-31T02:33:10.030Z,100794.91
2022-10-31T02:35:59.147Z,100807.16
2022-10-31T02:38:59.761Z,100812.97
2022-10-31T02:41:38.286Z,100813.47
2022-10-31T02:44:37.378Z,100794.50
2022-10-31T02:47:23.033Z,100807.66
2022-10-31T02:50:08.135Z,100807.25
2022-10-31T02:52:42.810Z,100814.59
2022-10-31T02:55:27.633Z,100808.16
2022-10-31T02:58:16.669Z,100805.75
2022-10-31T03:01:14.432Z,100810.19
2022-10-31T03:04:09.834Z,100803.91
2022-10-31T03:06:59.957Z,100819.47
2022-10-31T03:09:54.084Z,100816.53
2022-10-31T03:12:51.834Z,100810.84
2022-10-31T03:15:35.021Z,100816.41
2022-10-31T03:18:19.074Z,100814.53
2022-10-31T03:20:58.110Z,100822.84
2022-10-31T03:23:32.448Z,100813.28
2022-10-31T03:26:07.200Z,100819.13
2022-10-31T03:29:07.305Z,100811.72
2022-10-31T03:31:39.193Z,100776.88
2022-10-31T03:34:12.110Z,100805.22
2022-10-31T03:36:51.864Z,100804.94
2022-10-31T03:39:22.051Z,100809.88
2022-10-31T03:42:03.498Z,100815.09
2022-10-31T03:44:36.542Z,100810.66
2022-10-31T03:47:15.564Z,100806.69
2022-10-31T03:49:48.150Z,100815.50
2022-10-31T03:52:50.567Z,100819.72
2022-10-31T03:55:40.517Z,100789.72
2022-10-31T03:58:14.660Z,100822.94
2022-10-31T04:00:45.801Z,100818.56
2022-10-31T04:03:23.506Z,100797.19
2022-10-31T04:05:54.113Z,100799.00
2022-10-31T04:08:28.302Z,100815.22
2022-10-31T04:10:57.391Z,100826.13
2022-10-31T04:13:33.870Z,100819.22
2022-10-31T04:16:00.901Z,100821.09
2022-10-31T04:18:31.241Z,100821.53
2022-10-31T04:21:03.253Z,100826.13
2022-10-31T04:23:30.618Z,100830.44
2022-10-31T04:25:58.897Z,100803.50
2022-10-31T04:28:29.337Z,100827.72
2022-10-31T04:30:56.316Z,100829.56
2022-10-31T04:33:25.954Z,100829.09
2022-10-31T04:35:56.072Z,100832.50
2022-10-31T04:38:22.804Z,100822.97
2022-10-31T04:40:49.740Z,100834.00
2022-10-31T04:45:56.446Z,100801.91
2022-10-31T04:48:26.992Z,100829.19
2022-10-31T04:50:55.954Z,100822.19
2022-10-31T04:53:26.273Z,100819.00
2022-10-31T04:55:53.124Z,100817.66
2022-10-31T04:58:20.016Z,100816.19
2022-10-31T05:00:46.789Z,100787.09
2022-10-31T05:03:13.646Z,100814.81
2022-10-31T05:05:43.512Z,100806.31
2022-10-31T05:08:14.676Z,100799.19
2022-10-31T05:10:42.848Z,100805.28
2022-10-31T05:13:10.571Z,100799.94
2022-10-31T05:15:37.543Z,100802.63
2022-10-31T05:18:04.631Z,100795.19
2022-10-31T05:20:32.328Z,100799.34
2022-10-31T05:23:00.076Z,100798.22
2022-10-31T05:25:32.766Z,100798.94
2022-10-31T05:27:59.902Z,100791.38
2022-10-31T05:30:32.308Z,100788.47
2022-10-31T05:33:03.024Z,100777.16
2022-10-31T05:35:33.031Z,100800.84
2022-10-31T05:38:05.488Z,100789.00
2022-10-31T05:40:35.701Z,100784.66
2022-10-31T05:43:06.084Z,100788.84
2022-10-31T05:45:39.077Z,100788.78
2022-10-31T05:48:09.632Z,100783.09
2022-10-31T05:50:36.616Z,100784.16
2022-10-31T05:53:07.131Z,100792.72
2022-10-31T05:55:34.004Z,100765.78
2022-10-31T05:58:04.119Z,100802.97
2022-10-31T06:00:36.195Z,100796.13
2022-10-31T06:05:40.991Z,100751.69
2022-10-31T06:08:07.801Z,100688.66
2022-10-31T06:10:37.843Z,100780.84
2022-10-31T06:13:08.033Z,100786.44
2022-10-31T06:15:34.921Z,100786.03
2022-10-31T06:18:08.923Z,100775.50
2022-10-31T06:20:35.721Z,100779.72
2022-10-31T06:23:03.576Z,100779.72
2022-10-31T06:25:31.359Z,100771.59
2022-10-31T06:27:58.431Z,100784.69
2022-10-31T06:30:26.300Z,100796.06
2022-10-31T06:32:53.143Z,100781.34
2022-10-31T06:35:20.173Z,100784.88
2022-10-31T06:37:56.922Z,100780.31
2022-10-31T06:40:24.059Z,100781.63
2022-10-31T06:43:01.003Z,100787.19
2022-10-31T06:45:28.359Z,100783.94
2022-10-31T06:48:16.087Z,100793.69
2022-10-31T06:50:45.709Z,100779.97
2022-10-31T06:53:15.586Z,100808.88
2022-10-31T06:55:46.231Z,100801.97
2022-10-31T06:58:13.652Z,100797.00
2022-10-31T07:00:44.278Z,100800.16
2022-10-31T07:03:13.082Z,100760.97
2022-10-31T07:05:44.344Z,100803.28
2022-10-31T07:08:17.741Z,100795.69
2022-10-31T07:10:53.638Z,100792.44
2022-10-31T07:13:25.843Z,100805.22
2022-10-31T07:16:01.787Z,100804.53
2022-10-31T07:18:29.176Z,100802.13
2022-10-31T07:20:56.285Z,100813.78
2022-10-31T07:23:23.478Z,100823.13
2022-10-31T07:25:55.697Z,100817.53
2022-10-31T07:28:26.948Z,100825.91
2022-10-31T07:30:58.067Z,100810.28
2022-10-31T07:33:28.624Z,100802.94
2022-10-31T07:35:55.556Z,100802.72
2022-10-31T07:38:26.082Z,100807.34
2022-10-31T07:40:54.027Z,100804.38
2022-10-31T07:43:24.191Z,100790.41
2022-10-31T07:45:54.021Z,100801.44
2022-10-31T07:48:24.370Z,100800.56
2022-10-31T07:50:52.737Z,100805.75
2022-10-31T07:53:19.629Z,100805.88
2022-10-31T07:55:46.554Z,100807.59
2022-10-31T07:58:16.557Z,100806.66
2022-10-31T08:00:46.165Z,100818.47
2022-10-31T08:03:15.692Z,100810.38
2022-10-31T08:05:42.900Z,100814.06
2022-10-31T08:08:09.876Z,100808.34
2022-10-31T08:10:41.716Z,100808.69
2022-10-31T08:13:27.395Z,100804.56
2022-10-31T08:16:04.582Z,100800.41
2022-10-31T08:18:34.765Z,100791.69
2022-10-31T08:21:05.760Z,100810.06
2022-10-31T08:23:32.643Z,100772.97
2022-10-31T08:26:01.628Z,100818.38
2022-10-31T08:28:32.039Z,100811.44
2022-10-31T08:30:59.859Z,100808.28
2022-10-31T08:33:26.823Z,100812.50
2022-10-31T08:35:54.244Z,100804.34
2022-10-31T08:38:21.322Z,100796.63
2022-10-31T08:40:51.668Z,100789.94
2022-10-31T08:43:21.800Z,100805.25
2022-10-31T08:45:51.981Z,100796.59
2022-10-31T08:48:21.231Z,100797.78
2022-10-31T08:50:48.294Z,100805.38
2022-10-31T08:53:18.087Z,100777.63
2022-10-31T08:55:46.403Z,100800.75
2022-10-31T08:58:22.716Z,100789.34
2022-10-31T09:00:54.634Z,100790.25
2022-10-31T09:03:28.005Z,100793.63
2022-10-31T09:06:09.938Z,100793.06
2022-10-31T09:08:39.958Z,100787.53
2022-10-31T09:11:10.224Z,100786.75
2022-10-31T09:13:41.413Z,100785.09
2022-10-31T09:16:11.620Z,100791.91
2022-10-31T09:18:39.903Z,100731.25
2022-10-31T09:21:10.574Z,100779.38
2022-10-31T09:23:37.901Z,100749.84
2022-10-31T09:26:07.906Z,100768.94
2022-10-31T09:28:38.184Z,100774.34
2022-10-31T09:31:05.364Z,100773.03
2022-10-31T09:33:33.572Z,100769.56
2022-10-31T09:36:03.172Z,100767.38
2022-10-31T09:38:33.216Z,100772.09
2022-10-31T09:41:39.440Z,100762.81
2022-10-31T09:44:24.909Z,100758.69
2022-10-31T09:47:19.030Z,100754.88
2022-10-31T09:49:58.058Z,100759.22
2022-10-31T09:52:34.754Z,100752.22
2022-10-31T09:55:31.974Z,100760.31
2022-10-31T09:58:03.010Z,100760.78
2022-10-31T10:00:37.279Z,100760.03
2022-10-31T10:03:45.523Z,100759.53
2022-10-31T10:06:28.536Z,100751.81
2022-10-31T10:09:05.160Z,100754.63
2022-10-31T10:11:52.517Z,100754.91
2022-10-31T10:14:31.250Z,100756.78
2022-10-31T10:17:10.293Z,100748.09
2022-10-31T10:19:43.563Z,100694.69
2022-10-31T10:22:45.674Z,100746.34
2022-10-31T10:25:41.472Z,100740.31
2022-10-31T10:28:44.035Z,100736.06
2022-10-31T10:31:48.381Z,100734.09
2022-10-31T10:35:09.368Z,100732.72
2022-10-31T10:37:51.580Z,100723.75
2022-10-31T10:40:23.330Z,100726.50
2022-10-31T10:43:22.905Z,100720.38
2022-10-31T10:46:39.000Z,100725.63
2022-10-31T10:49:44.461Z,100722.06
2022-10-31T10:52:43.588Z,100715.69
2022-10-31T10:56:03.783Z,100715.13
2022-10-31T10:58:49.442Z,100715.25
2022-10-31T11:01:35.629Z,100706.47
2022-10-31T11:04:16.228Z,100683.16
2022-10-31T11:07:09.287Z,100706.25
2022-10-31T11:09:43.861Z,100688.56
2022-10-31T11:12:35.243Z,100695.38
2022-10-31T11:15:30.425Z,100689.88
2022-10-31T11:21:06.694Z,100639.03
2022-10-31T11:24:14.963Z,100667.78
2022-10-31T11:27:13.736Z,100626.22
2022-10-31T11:29:50.309Z,100656.66
2022-10-31T11:32:38.526Z,100615.06
2022-10-31T11:35:28.321Z,100642.41
2022-10-31T11:38:03.924Z,100640.81
2022-10-31T11:40:52.126Z,100634.41
2022-10-31T11:43:51.115Z,100631.06
2022-10-31T11:47:01.709Z,100614.19
2022-10-31T11:49:41.609Z,100629.50
2022-10-31T11:52:19.772Z,100617.06
2022-10-31T11:54:59.450Z,100619.88
2022-10-31T11:58:09.639Z,100625.38
2022-10-31T12:01:27.135Z,100621.09
2022-10-31T12:04:14.784Z,100616.84
2022-10-31T12:07:00.693Z,100614.56
2022-10-31T12:09:39.348Z,100628.63
2022-10-31T12:12:51.292Z,100625.75
2022-10-31T12:15:34.562Z,100629.75
2022-10-31T12:18:13.581Z,100621.81
2022-10-31T12:21:07.801Z,100609.47
2022-10-31T12:23:50.212Z,100606.81
2022-10-31T12:26:26.392Z,100608.00
2022-10-31T12:29:32.169Z,100582.41
2022-10-31T12:32:19.020Z,100571.50
2022-10-31T12:35:08.963Z,100561.22
2022-10-31T12:37:48.359Z,100546.91
2022-10-31T12:40:52.718Z,100557.06
2022-10-31T12:43:49.747Z,100554.13
2022-10-31T12:46:44.837Z,100546.47
2022-10-31T12:49:49.003Z,100540.25
2022-10-31T12:52:42.296Z,100534.06
2022-10-31T12:55:26.065Z,100529.66
2022-10-31T12:58:07.210Z,100528.00
2022-10-31T13:00:43.689Z,100516.03
2022-10-31T13:03:37.825Z,100529.03
2022-10-31T13:06:19.164Z,100508.63
2022-10-31T13:09:28.042Z,100508.22
2022-10-31T13:12:18.427Z,100518.25
2022-10-31T13:15:28.777Z,100513.53
2022-10-31T13:18:03.417Z,100517.66
2022-10-31T13:20:36.533Z,100525.75
2022-10-31T13:23:29.779Z,100525.97
2022-10-31T13:26:13.226Z,100487.56
2022-10-31T13:29:03.736Z,100512.97
2022-10-31T13:31:50.554Z,100516.59
2022-10-31T13:34:38.042Z,100515.97
2022-10-31T13:37:27.427Z,100515.84
2022-10-31T13:40:31.989Z,100505.81
2022-10-31T13:43:31.955Z,100506.63
2022-10-31T13:46:41.086Z,100505.75
2022-10-31T13:49:49.722Z,100506.94
2022-10-31T13:52:38.496Z,100504.16
2022-10-31T13:55:28.996Z,100500.28
2022-10-31T13:58:24.903Z,100484.69
2022-10-31T14:01:21.567Z,100496.16
2022-10-31T14:04:20.741Z,100493.50
2022-10-31T14:07:22.879Z,100478.38
2022-10-31T14:09:56.720Z,100477.19
2022-10-31T14:12:45.034Z,100474.53
2022-10-31T14:15:35.711Z,100475.50
2022-10-31T14:18:38.216Z,100455.72
2022-10-31T14:21:24.237Z,100472.13
2022-10-31T14:24:21.509Z,100459.81
2022-10-31T14:27:26.205Z,100455.47
2022-10-31T14:30:10.319Z,100475.44
2022-10-31T14:32:45.048Z,100470.13
2022-10-31T14:35:54.472Z,100482.72
2022-10-31T14:38:52.574Z,100480.34
2022-10-31T14:41:22.428Z,100398.72
2022-10-31T14:44:45.626Z,100461.56
2022-10-31T14:47:41.239Z,100450.69
2022-10-31T14:50:52.713Z,100432.66
2022-10-31T14:53:19.879Z,100442.03
2022-10-31T14:56:13.104Z,100435.06
2022-10-31T14:58:54.094Z,100422.28
2022-10-31T15:01:34.719Z,100426.59
2022-10-31T15:04:33.969Z,100412.94
2022-10-31T15:07:23.298Z,100417.69
2022-10-31T15:10:33.812Z,100421.50
2022-10-31T15:13:37.657Z,100425.97
2022-10-31T15:16:12.606Z,100410.00
2022-10-31T15:18:51.037Z,100392.34
2022-10-31T15:21:24.922Z,100386.13
2022-10-31T15:24:20.756Z,100381.19
2022-10-31T15:27:08.529Z,100358.28
2022-10-31T15:29:41.536Z,100383.88
2022-10-31T15:32:59.427Z,100388.94
2022-10-31T15:35:41.704Z,100377.31
2022-10-31T15:38:10.661Z,100328.09
2022-10-31T15:41:05.701Z,100338.78
2022-10-31T15:43:41.678Z,100320.47
2022-10-31T15:46:15.711Z,100314.59
2022-10-31T15:48:53.958Z,100308.38
2022-10-31T15:51:55.658Z,100302.47
2022-10-31T15:54:28.661Z,100289.88
2022-10-31T15:57:17.332Z,100294.69
2022-10-31T16:00:29.258Z,100304.44
2022-10-31T16:03:16.110Z,100335.53
2022-10-31T16:05:48.914Z,100340.56
2022-10-31T16:08:52.291Z,100303.50
2022-10-31T16:11:42.550Z,100366.22
2022-10-31T16:14:13.989Z,100376.13
2022-10-31T16:16:51.803Z,100384.81
2022-10-31T16:19:37.356Z,100395.88
2022-10-31T16:22:15.389Z,100391.09
2022-10-31T16:25:09.712Z,100377.16
2022-10-31T16:28:03.319Z,100360.03
2022-10-31T16:30:53.829Z,100357.03
2022-10-31T16:34:10.171Z,100367.03
2022-10-31T16:37:12.173Z,100353.97
2022-10-31T16:39:59.686Z,100344.66
2022-10-31T16:42:51.938Z,100329.06
2022-10-31T16:45:48.152Z,100312.94
2022-10-31T16:48:23.778Z,100313.59
2022-10-31T16:50:56.260Z,100284.97
2022-10-31T16:53:25.638Z,100331.63
2022-10-31T16:56:46.175Z,100315.28
2022-10-31T16:59:19.214Z,100319.75
2022-10-31T17:01:52.014Z,100343.78
2022-10-31T17:04:21.104Z,100338.91
2022-10-31T17:06:54.796Z,100326.91
2022-10-31T17:09:26.471Z,100316.03
2022-10-31T17:12:00.094Z,100297.03
2022-10-31T17:14:32.805Z,100323.13
2022-10-31T17:17:05.375Z,100313.59
2022-10-31T17:19:36.471Z,100310.50
2022-10-31T17:22:08.602Z,100306.34
2022-10-31T17:24:38.025Z,100270.81
2022-10-31T17:27:06.753Z,100320.38
2022-10-31T17:29:42.787Z,100328.31
2022-10-31T17:32:16.486Z,100293.91
2022-10-31T17:34:49.221Z,100284.50
2022-10-31T17:37:21.856Z,100342.72
2022-10-31T17:39:51.899Z,100329.19
2022-10-31T17:42:20.968Z,100360.44
2022-10-31T17:44:49.609Z,100369.38
2022-10-31T17:47:21.379Z,100324.97
2022-10-31T17:49:50.465Z,100355.53
2022-10-31T17:52:25.195Z,100348.81
2022-10-31T17:54:56.413Z,100351.97
2022-10-31T17:57:28.470Z,100344.47
2022-10-31T17:59:55.683Z,100337.38
2022-10-31T18:02:31.881Z,100337.97
2022-10-31T18:05:03.216Z,100349.75
2022-10-31T18:07:30.173Z,100363.06
2022-10-31T18:09:57.692Z,100330.69
2022-10-31T18:12:29.162Z,100369.16
2022-10-31T18:14:57.183Z,100350.59
2022-10-31T18:17:26.001Z,100327.81
2022-10-31T18:19:56.708Z,100343.00
2022-10-31T18:22:25.558Z,100352.66
2022-10-31T18:25:01.866Z,100337.59
2022-10-31T18:27:35.127Z,100328.22
2022-10-31T18:30:02.768Z,100331.81
2022-10-31T18:32:30.242Z,100336.72
2022-10-31T18:35:00.511Z,100324.47
2022-10-31T18:37:33.031Z,100329.13
2022-10-31T18:40:04.699Z,100323.72
2022-10-31T18:42:35.744Z,100332.66
2022-10-31T18:47:48.471Z,100337.34
2022-10-31T18:50:21.983Z,100329.53
2022-10-31T18:52:54.532Z,100337.34
2022-10-31T18:55:23.876Z,100320.72
2022-10-31T18:57:53.934Z,100327.88
2022-10-31T19:00:21.423Z,100331.84
2022-10-31T19:02:56.364Z,100324.88
2022-10-31T19:05:28.845Z,100335.72
2022-10-31T19:08:04.800Z,100333.91
2022-10-31T19:10:38.210Z,100325.16
2022-10-31T19:13:07.050Z,100329.59
2022-10-31T19:15:39.018Z,100315.25
2022-10-31T19:18:13.018Z,100313.81
2022-10-31T19:20:41.694Z,100327.91
2022-10-31T19:23:16.344Z,100331.03
2022-10-31T19:25:51.944Z,100327.75
2022-10-31T19:28:19.785Z,100328.34
2022-10-31T19:30:55.488Z,100322.97
2022-10-31T19:33:23.460Z,100337.31
2022-10-31T19:36:01.523Z,100347.09
2022-10-31T19:38:31.532Z,100351.13
2022-10-31T19:41:05.926Z,100292.56
2022-10-31T19:43:39.245Z,100342.81
2022-10-31T19:46:27.706Z,100356.25
2022-10-31T19:49:04.344Z,100343.03
2022-10-31T19:51:37.282Z,100332.47
2022-10-31T19:54:08.056Z,100297.75
2022-10-31T19:56:36.154Z,100322.97
2022-10-31T19:59:05.286Z,100339.16
2022-10-31T20:01:38.038Z,100338.91
2022-10-31T20:04:10.110Z,100340.63
2022-10-31T20:06:43.292Z,100339.66
2022-10-31T20:09:20.365Z,100336.78
2022-10-31T20:11:48.978Z,100337.41
2022-10-31T20:14:19.223Z,100330.84
2022-10-31T20:16:55.213Z,100329.16
2022-10-31T20:19:26.301Z,100296.84
2022-10-31T20:21:57.205Z,100328.25
2022-10-31T20:24:29.059Z,100319.19
2022-10-31T20:27:00.156Z,100321.31
2022-10-31T20:29:30.812Z,100326.00
2022-10-31T20:32:01.222Z,100326.16
2022-10-31T20:34:33.592Z,100325.28
2022-10-31T20:37:05.638Z,100336.88
2022-10-31T20:39:37.938Z,100325.00
2022-10-31T20:42:10.236Z,100275.22
2022-10-31T20:44:39.947Z,100330.72
2022-10-31T20:47:12.395Z,100344.91
2022-10-31T20:49:44.912Z,100340.97
2022-10-31T20:52:15.387Z,100340.97
2022-10-31T20:54:42.529Z,100314.94
2022-10-31T20:57:14.908Z,100334.69
2022-10-31T20:59:51.737Z,100324.88
2022-10-31T21:02:18.989Z,100335.34
2022-10-31T21:04:49.889Z,100334.50
2022-10-31T21:07:26.109Z,100303.03
2022-10-31T21:09:53.393Z,100340.09
2022-10-31T21:12:21.976Z,100338.63
2022-10-31T21:14:52.368Z,100307.69
2022-10-31T21:17:23.845Z,100331.41
2022-10-31T21:19:56.349Z,100312.72
2022-10-31T21:22:27.765Z,100337.13
2022-10-31T21:24:59.405Z,100302.66
2022-10-31T21:27:32.082Z,100343.06
2022-10-31T21:30:03.230Z,100354.28
2022-10-31T21:32:34.586Z,100340.81
2022-10-31T21:35:09.064Z,100345.81
2022-10-31T21:37:39.257Z,100306.88
2022-10-31T21:40:08.848Z,100339.25
2022-10-31T21:42:36.606Z,100335.66
2022-10-31T21:45:11.498Z,100323.44
2022-10-31T21:47:38.705Z,100337.41
2022-10-31T21:50:06.278Z,100296.72
2022-10-31T21:52:33.538Z,100323.03
2022-10-31T21:55:00.494Z,100330.28
2022-10-31T21:57:27.411Z,100330.34
2022-10-31T21:59:54.443Z,100310.13
2022-10-31T22:02:21.575Z,100306.91
2022-10-31T22:04:50.433Z,100310.88
2022-10-31T22:07:18.929Z,100308.03
2022-10-31T22:09:54.468Z,100312.25
2022-10-31T22:12:26.826Z,100299.91
2022-10-31T22:14:58.862Z,100304.66
2022-10-31T22:17:29.372Z,100291.25
2022-10-31T22:19:56.452Z,100309.06
2022-10-31T22:22:27.122Z,100301.72
2022-10-31T22:24:54.389Z,100296.69
2022-10-31T22:27:24.234Z,100299.44
2022-10-31T22:29:56.851Z,100290.34
2022-10-31T22:32:24.189Z,100298.50
2022-10-31T22:34:50.957Z,100305.22
2022-10-31T22:37:21.544Z,100304.72
2022-10-31T22:39:49.498Z,100304.91
2022-10-31T22:42:16.353Z,100292.88
2022-10-31T22:44:46.343Z,100290.69
2022-10-31T22:47:16.406Z,100289.84
2022-10-31T22:49:44.080Z,100294.75
2022-10-31T22:52:14.577Z,100257.81
2022-10-31T22:54:43.383Z,100294.00
2022-10-31T22:57:10.480Z,100298.56
2022-10-31T22:59:41.196Z,100298.06
2022-10-31T23:02:12.494Z,100296.38
2022-10-31T23:04:42.850Z,100285.06
2022-10-31T23:07:12.353Z,100292.56
2022-10-31T23:09:41.763Z,100279.97
2022-10-31T23:12:30.234Z,100299.72
2022-10-31T23:15:00.568Z,100286.06
2022-10-31T23:17:27.395Z,100290.44
2022-10-31T23:19:54.432Z,100294.06
2022-10-31T23:22:21.479Z,100292.53
2022-10-31T23:24:51.357Z,100266.81
2022-10-31T23:27:36.591Z,100298.97
2022-10-31T23:30:07.328Z,100303.03
2022-10-31T23:32:38.524Z,100298.97
2022-10-31T23:35:08.360Z,100296.22
2022-10-31T23:37:39.450Z,100299.06
2022-10-31T23:40:08.858Z,100295.63
2022-10-31T23:42:36.152Z,100287.94
2022-10-31T23:45:06.573Z,100296.97
2022-10-31T23:47:42.346Z,100288.16
2022-10-31T23:50:10.511Z,100302.31
2022-10-31T23:52:40.841Z,100291.25
2022-10-31T23:55:08.241Z,100299.34
2022-10-31T23:57:35.027Z,100290.94
